sensor_id;sensor_type;location;lat;lon;timestamp;P1;durP1;ratioP1;P2;durP2;ratioP2
16147;SDS011;8179;59.364;18.018;2023-08-01T00:01:12;858.17;;;813.10;;
16147;SDS011;8179;59.364;18.018;2023-08-01T00:03:39;862.08;;;815.75;;
16147;SDS011;8179;59.364;18.018;2023-08-01T00:06:05;808.25;;;765.58;;
16147;SDS011;8179;59.364;18.018;2023-08-01T00:08:32;831.08;;;787.55;;
16147;SDS011;8179;59.364;18.018;2023-08-01T00:10:58;871.83;;;824.20;;
16147;SDS011;8179;59.364;18.018;2023-08-01T00:13:26;859.17;;;813.30;;
16147;SDS011;8179;59.364;18.018;2023-08-01T00:15:53;872.95;;;825.38;;
16147;SDS011;8179;59.364;18.018;2023-08-01T00:18:19;842.58;;;797.70;;
16147;SDS011;8179;59.364;18.018;2023-08-01T00:20:46;901.45;;;850.50;;
16147;SDS011;8179;59.364;18.018;2023-08-01T00:23:12;1012.22;;;951.10;;
16147;SDS011;8179;59.364;18.018;2023-08-01T00:25:39;827.63;;;784.20;;
16147;SDS011;8179;59.364;18.018;2023-08-01T00:28:05;818.60;;;775.78;;
16147;SDS011;8179;59.364;18.018;2023-08-01T00:30:33;784.70;;;744.95;;
16147;SDS011;8179;59.364;18.018;2023-08-01T00:32:59;795.47;;;754.15;;
16147;SDS011;8179;59.364;18.018;2023-08-01T00:35:26;822.22;;;779.72;;
16147;SDS011;8179;59.364;18.018;2023-08-01T00:37:53;823.83;;;780.63;;
16147;SDS011;8179;59.364;18.018;2023-08-01T00:40:19;814.63;;;772.20;;
16147;SDS011;8179;59.364;18.018;2023-08-01T00:42:45;829.92;;;786.42;;
16147;SDS011;8179;59.364;18.018;2023-08-01T00:45:12;777.30;;;738.05;;
16147;SDS011;8179;59.364;18.018;2023-08-01T00:47:40;789.67;;;749.63;;
16147;SDS011;8179;59.364;18.018;2023-08-01T00:50:07;831.40;;;788.10;;
16147;SDS011;8179;59.364;18.018;2023-08-01T00:52:33;850.95;;;805.85;;
16147;SDS011;8179;59.364;18.018;2023-08-01T00:55:00;838.95;;;794.90;;
16147;SDS011;8179;59.364;18.018;2023-08-01T00:57:26;824.08;;;781.22;;
16147;SDS011;8179;59.364;18.018;2023-08-01T00:59:53;846.47;;;800.88;;
16147;SDS011;8179;59.364;18.018;2023-08-01T01:02:19;810.08;;;768.50;;
16147;SDS011;8179;59.364;18.018;2023-08-01T01:04:47;814.80;;;772.20;;
16147;SDS011;8179;59.364;18.018;2023-08-01T01:07:14;892.22;;;843.60;;
16147;SDS011;8179;59.364;18.018;2023-08-01T01:09:41;843.45;;;798.97;;
16147;SDS011;8179;59.364;18.018;2023-08-01T01:12:08;793.78;;;753.83;;
16147;SDS011;8179;59.364;18.018;2023-08-01T01:14:34;778.70;;;739.35;;
16147;SDS011;8179;59.364;18.018;2023-08-01T01:17:01;770.72;;;731.85;;
16147;SDS011;8179;59.364;18.018;2023-08-01T01:19:28;819.58;;;777.22;;
16147;SDS011;8179;59.364;18.018;2023-08-01T01:21:55;759.55;;;721.72;;
16147;SDS011;8179;59.364;18.018;2023-08-01T01:24:23;780.65;;;741.38;;
16147;SDS011;8179;59.364;18.018;2023-08-01T01:26:49;803.63;;;762.03;;
16147;SDS011;8179;59.364;18.018;2023-08-01T01:29:16;797.42;;;756.50;;
16147;SDS011;8179;59.364;18.018;2023-08-01T01:31:44;779.72;;;740.28;;
16147;SDS011;8179;59.364;18.018;2023-08-01T01:34:11;808.92;;;767.03;;
16147;SDS011;8179;59.364;18.018;2023-08-01T01:36:38;809.33;;;766.85;;
16147;SDS011;8179;59.364;18.018;2023-08-01T01:39:05;807.20;;;765.58;;
16147;SDS011;8179;59.364;18.018;2023-08-01T01:41:32;766.65;;;728.55;;
16147;SDS011;8179;59.364;18.018;2023-08-01T01:43:58;799.45;;;758.08;;
16147;SDS011;8179;59.364;18.018;2023-08-01T01:46:25;841.35;;;796.85;;
16147;SDS011;8179;59.364;18.018;2023-08-01T01:48:51;854.03;;;809.00;;
16147;SDS011;8179;59.364;18.018;2023-08-01T01:51:19;839.80;;;795.65;;
16147;SDS011;8179;59.364;18.018;2023-08-01T01:53:45;923.30;;;870.28;;
16147;SDS011;8179;59.364;18.018;2023-08-01T01:56:13;855.45;;;809.30;;
16147;SDS011;8179;59.364;18.018;2023-08-01T01:58:40;867.08;;;821.13;;
16147;SDS011;8179;59.364;18.018;2023-08-01T02:01:06;890.72;;;842.38;;
16147;SDS011;8179;59.364;18.018;2023-08-01T02:03:33;895.38;;;846.47;;
16147;SDS011;8179;59.364;18.018;2023-08-01T02:05:59;907.20;;;856.22;;
16147;SDS011;8179;59.364;18.018;2023-08-01T02:08:26;897.40;;;848.25;;
16147;SDS011;8179;59.364;18.018;2023-08-01T02:10:52;907.25;;;857.75;;
16147;SDS011;8179;59.364;18.018;2023-08-01T02:13:21;936.22;;;884.47;;
16147;SDS011;8179;59.364;18.018;2023-08-01T02:15:48;925.15;;;873.45;;
16147;SDS011;8179;59.364;18.018;2023-08-01T02:18:14;972.13;;;916.70;;
16147;SDS011;8179;59.364;18.018;2023-08-01T02:20:40;989.47;;;929.90;;
16147;SDS011;8179;59.364;18.018;2023-08-01T02:23:06;939.13;;;886.28;;
16147;SDS011;8179;59.364;18.018;2023-08-01T02:25:37;966.75;;;911.10;;
16147;SDS011;8179;59.364;18.018;2023-08-01T02:28:04;952.22;;;898.17;;
16147;SDS011;8179;59.364;18.018;2023-08-01T02:30:32;948.55;;;894.30;;
16147;SDS011;8179;59.364;18.018;2023-08-01T02:32:58;876.08;;;827.17;;
16147;SDS011;8179;59.364;18.018;2023-08-01T02:35:25;934.53;;;882.30;;
16147;SDS011;8179;59.364;18.018;2023-08-01T02:37:53;931.80;;;879.63;;
16147;SDS011;8179;59.364;18.018;2023-08-01T02:40:19;983.90;;;926.95;;
16147;SDS011;8179;59.364;18.018;2023-08-01T02:42:46;957.65;;;903.17;;
16147;SDS011;8179;59.364;18.018;2023-08-01T02:45:12;936.05;;;884.10;;
16147;SDS011;8179;59.364;18.018;2023-08-01T02:47:40;936.13;;;883.63;;
16147;SDS011;8179;59.364;18.018;2023-08-01T02:50:07;950.75;;;897.65;;
16147;SDS011;8179;59.364;18.018;2023-08-01T02:52:34;910.25;;;859.97;;
16147;SDS011;8179;59.364;18.018;2023-08-01T02:55:00;953.65;;;900.35;;
16147;SDS011;8179;59.364;18.018;2023-08-01T02:57:27;883.97;;;836.33;;
16147;SDS011;8179;59.364;18.018;2023-08-01T02:59:53;915.45;;;865.33;;
16147;SDS011;8179;59.364;18.018;2023-08-01T03:02:20;1006.75;;;946.28;;
16147;SDS011;8179;59.364;18.018;2023-08-01T03:04:48;919.53;;;869.00;;
16147;SDS011;8179;59.364;18.018;2023-08-01T03:07:14;932.05;;;879.85;;
16147;SDS011;8179;59.364;18.018;2023-08-01T03:09:41;916.28;;;864.80;;
16147;SDS011;8179;59.364;18.018;2023-08-01T03:12:08;892.90;;;843.50;;
16147;SDS011;8179;59.364;18.018;2023-08-01T03:14:35;883.20;;;836.05;;
16147;SDS011;8179;59.364;18.018;2023-08-01T03:17:02;915.40;;;864.88;;
16147;SDS011;8179;59.364;18.018;2023-08-01T03:19:28;901.08;;;851.72;;
16147;SDS011;8179;59.364;18.018;2023-08-01T03:21:56;910.78;;;859.97;;
16147;SDS011;8179;59.364;18.018;2023-08-01T03:24:23;912.58;;;862.20;;
16147;SDS011;8179;59.364;18.018;2023-08-01T03:26:49;910.03;;;859.97;;
16147;SDS011;8179;59.364;18.018;2023-08-01T03:29:16;943.75;;;890.03;;
16147;SDS011;8179;59.364;18.018;2023-08-01T03:31:42;877.55;;;830.05;;
16147;SDS011;8179;59.364;18.018;2023-08-01T03:34:09;880.25;;;832.40;;
16147;SDS011;8179;59.364;18.018;2023-08-01T03:36:35;879.67;;;831.33;;
16147;SDS011;8179;59.364;18.018;2023-08-01T03:39:03;952.60;;;898.85;;
16147;SDS011;8179;59.364;18.018;2023-08-01T03:41:30;904.53;;;855.45;;
16147;SDS011;8179;59.364;18.018;2023-08-01T03:43:57;832.90;;;788.90;;
16147;SDS011;8179;59.364;18.018;2023-08-01T03:46:23;884.72;;;836.45;;
16147;SDS011;8179;59.364;18.018;2023-08-01T03:48:50;874.30;;;827.17;;
16147;SDS011;8179;59.364;18.018;2023-08-01T03:51:16;926.78;;;874.40;;
16147;SDS011;8179;59.364;18.018;2023-08-01T03:53:44;934.80;;;882.53;;
16147;SDS011;8179;59.364;18.018;2023-08-01T03:56:12;932.75;;;881.17;;
16147;SDS011;8179;59.364;18.018;2023-08-01T03:58:38;924.65;;;872.85;;
16147;SDS011;8179;59.364;18.018;2023-08-01T04:01:05;963.60;;;908.55;;
16147;SDS011;8179;59.364;18.018;2023-08-01T04:03:32;923.28;;;872.22;;
16147;SDS011;8179;59.364;18.018;2023-08-01T04:05:58;836.00;;;792.28;;
16147;SDS011;8179;59.364;18.018;2023-08-01T04:08:25;880.63;;;833.00;;
16147;SDS011;8179;59.364;18.018;2023-08-01T04:10:51;892.08;;;842.83;;
16147;SDS011;8179;59.364;18.018;2023-08-01T04:13:19;983.25;;;924.67;;
16147;SDS011;8179;59.364;18.018;2023-08-01T04:15:45;890.55;;;841.45;;
16147;SDS011;8179;59.364;18.018;2023-08-01T04:18:12;898.50;;;848.50;;
16147;SDS011;8179;59.364;18.018;2023-08-01T04:20:39;935.67;;;884.00;;
16147;SDS011;8179;59.364;18.018;2023-08-01T04:23:05;928.75;;;876.28;;
16147;SDS011;8179;59.364;18.018;2023-08-01T04:25:32;919.35;;;866.70;;
16147;SDS011;8179;59.364;18.018;2023-08-01T04:27:58;754.05;;;717.05;;
16147;SDS011;8179;59.364;18.018;2023-08-01T04:30:26;858.92;;;812.65;;
16147;SDS011;8179;59.364;18.018;2023-08-01T04:32:53;753.08;;;713.60;;
16147;SDS011;8179;59.364;18.018;2023-08-01T04:35:19;912.83;;;860.83;;
16147;SDS011;8179;59.364;18.018;2023-08-01T04:37:46;566.75;;;540.00;;
16147;SDS011;8179;59.364;18.018;2023-08-01T04:40:12;854.83;;;807.75;;
16147;SDS011;8179;59.364;18.018;2023-08-01T04:42:39;396.65;;;379.92;;
16147;SDS011;8179;59.364;18.018;2023-08-01T04:45:06;383.40;;;369.17;;
16147;SDS011;8179;59.364;18.018;2023-08-01T04:47:34;162.75;;;157.32;;
16147;SDS011;8179;59.364;18.018;2023-08-01T04:50:01;107.95;;;104.30;;
16147;SDS011;8179;59.364;18.018;2023-08-01T04:52:27;428.50;;;413.10;;
16147;SDS011;8179;59.364;18.018;2023-08-01T04:54:54;635.38;;;607.20;;
16147;SDS011;8179;59.364;18.018;2023-08-01T04:57:20;725.63;;;690.13;;
16147;SDS011;8179;59.364;18.018;2023-08-01T04:59:47;873.40;;;825.45;;
16147;SDS011;8179;59.364;18.018;2023-08-01T05:02:13;905.75;;;855.55;;
16147;SDS011;8179;59.364;18.018;2023-08-01T05:04:41;903.03;;;853.85;;
16147;SDS011;8179;59.364;18.018;2023-08-01T05:07:08;893.88;;;844.63;;
16147;SDS011;8179;59.364;18.018;2023-08-01T05:09:34;895.10;;;846.03;;
16147;SDS011;8179;59.364;18.018;2023-08-01T05:12:01;957.83;;;902.92;;
16147;SDS011;8179;59.364;18.018;2023-08-01T05:14:27;882.85;;;835.55;;
16147;SDS011;8179;59.364;18.018;2023-08-01T05:16:53;908.80;;;857.95;;
16147;SDS011;8179;59.364;18.018;2023-08-01T05:19:20;1023.58;;;960.60;;
16147;SDS011;8179;59.364;18.018;2023-08-01T05:21:48;947.63;;;893.15;;
16147;SDS011;8179;59.364;18.018;2023-08-01T05:24:14;938.88;;;885.40;;
16147;SDS011;8179;59.364;18.018;2023-08-01T05:26:41;848.78;;;802.55;;
16147;SDS011;8179;59.364;18.018;2023-08-01T05:29:07;908.78;;;857.03;;
16147;SDS011;8179;59.364;18.018;2023-08-01T05:31:34;934.38;;;879.97;;
16147;SDS011;8179;59.364;18.018;2023-08-01T05:34:00;1026.30;;;963.25;;
16147;SDS011;8179;59.364;18.018;2023-08-01T05:36:27;724.00;;;688.58;;
16147;SDS011;8179;59.364;18.018;2023-08-01T05:38:56;325.25;;;314.27;;
16147;SDS011;8179;59.364;18.018;2023-08-01T05:41:23;259.98;;;251.02;;
16147;SDS011;8179;59.364;18.018;2023-08-01T05:43:49;289.38;;;279.60;;
16147;SDS011;8179;59.364;18.018;2023-08-01T05:46:16;504.92;;;483.83;;
16147;SDS011;8179;59.364;18.018;2023-08-01T05:48:42;507.23;;;487.35;;
16147;SDS011;8179;59.364;18.018;2023-08-01T05:51:09;655.33;;;625.25;;
16147;SDS011;8179;59.364;18.018;2023-08-01T05:53:35;643.58;;;613.13;;
16147;SDS011;8179;59.364;18.018;2023-08-01T05:56:03;828.95;;;782.40;;
16147;SDS011;8179;59.364;18.018;2023-08-01T05:58:30;1012.47;;;950.90;;
16147;SDS011;8179;59.364;18.018;2023-08-01T06:00:57;828.47;;;784.80;;
16147;SDS011;8179;59.364;18.018;2023-08-01T06:03:23;941.97;;;887.28;;
16147;SDS011;8179;59.364;18.018;2023-08-01T06:05:50;903.03;;;852.60;;
16147;SDS011;8179;59.364;18.018;2023-08-01T06:08:16;866.30;;;819.13;;
16147;SDS011;8179;59.364;18.018;2023-08-01T06:10:43;894.65;;;845.88;;
16147;SDS011;8179;59.364;18.018;2023-08-01T06:13:11;976.65;;;920.67;;
16147;SDS011;8179;59.364;18.018;2023-08-01T06:15:38;845.83;;;799.90;;
16147;SDS011;8179;59.364;18.018;2023-08-01T06:18:04;915.85;;;864.30;;
16147;SDS011;8179;59.364;18.018;2023-08-01T06:20:31;922.38;;;870.15;;
16147;SDS011;8179;59.364;18.018;2023-08-01T06:22:57;808.83;;;767.75;;
16147;SDS011;8179;59.364;18.018;2023-08-01T06:25:24;835.22;;;790.60;;
16147;SDS011;8179;59.364;18.018;2023-08-01T06:27:51;926.40;;;874.63;;
16147;SDS011;8179;59.364;18.018;2023-08-01T06:30:19;903.33;;;853.67;;
16147;SDS011;8179;59.364;18.018;2023-08-01T06:32:45;943.63;;;890.20;;
16147;SDS011;8179;59.364;18.018;2023-08-01T06:35:12;927.90;;;875.08;;
16147;SDS011;8179;59.364;18.018;2023-08-01T06:37:38;965.22;;;908.22;;
16147;SDS011;8179;59.364;18.018;2023-08-01T06:40:06;963.47;;;906.92;;
16147;SDS011;8179;59.364;18.018;2023-08-01T06:42:33;933.70;;;881.40;;
16147;SDS011;8179;59.364;18.018;2023-08-01T06:44:59;877.53;;;829.22;;
16147;SDS011;8179;59.364;18.018;2023-08-01T06:47:27;906.33;;;855.92;;
16147;SDS011;8179;59.364;18.018;2023-08-01T06:49:54;942.97;;;889.00;;
16147;SDS011;8179;59.364;18.018;2023-08-01T06:52:20;972.60;;;915.95;;
16147;SDS011;8179;59.364;18.018;2023-08-01T06:54:47;959.83;;;904.17;;
16147;SDS011;8179;59.364;18.018;2023-08-01T06:57:13;872.30;;;825.20;;
16147;SDS011;8179;59.364;18.018;2023-08-01T06:59:40;1114.60;;;999.90;;
16147;SDS011;8179;59.364;18.018;2023-08-01T07:02:06;886.97;;;838.50;;
16147;SDS011;8179;59.364;18.018;2023-08-01T07:04:35;865.67;;;819.30;;
16147;SDS011;8179;59.364;18.018;2023-08-01T07:07:03;924.97;;;872.20;;
16147;SDS011;8179;59.364;18.018;2023-08-01T07:09:29;961.45;;;905.38;;
16147;SDS011;8179;59.364;18.018;2023-08-01T07:11:56;913.47;;;861.78;;
16147;SDS011;8179;59.364;18.018;2023-08-01T07:14:22;977.67;;;920.60;;
16147;SDS011;8179;59.364;18.018;2023-08-01T07:16:49;947.67;;;893.15;;
16147;SDS011;8179;59.364;18.018;2023-08-01T07:19:15;874.38;;;826.38;;
16147;SDS011;8179;59.364;18.018;2023-08-01T07:21:43;871.50;;;824.15;;
16147;SDS011;8179;59.364;18.018;2023-08-01T07:24:13;808.22;;;765.92;;
16147;SDS011;8179;59.364;18.018;2023-08-01T07:26:40;808.80;;;766.88;;
16147;SDS011;8179;59.364;18.018;2023-08-01T07:29:06;855.67;;;809.47;;
16147;SDS011;8179;59.364;18.018;2023-08-01T07:31:35;823.63;;;780.70;;
16147;SDS011;8179;59.364;18.018;2023-08-01T07:34:02;767.08;;;726.95;;
16147;SDS011;8179;59.364;18.018;2023-08-01T07:36:28;846.42;;;801.80;;
16147;SDS011;8179;59.364;18.018;2023-08-01T07:38:56;914.45;;;863.13;;
16147;SDS011;8179;59.364;18.018;2023-08-01T07:41:23;917.20;;;866.42;;
16147;SDS011;8179;59.364;18.018;2023-08-01T07:43:49;864.25;;;817.45;;
16147;SDS011;8179;59.364;18.018;2023-08-01T07:46:16;886.22;;;836.63;;
16147;SDS011;8179;59.364;18.018;2023-08-01T07:48:42;848.45;;;803.65;;
16147;SDS011;8179;59.364;18.018;2023-08-01T07:51:09;856.85;;;811.13;;
16147;SDS011;8179;59.364;18.018;2023-08-01T07:53:36;933.03;;;880.45;;
16147;SDS011;8179;59.364;18.018;2023-08-01T07:56:04;901.22;;;851.80;;
16147;SDS011;8179;59.364;18.018;2023-08-01T07:58:32;937.85;;;884.58;;
16147;SDS011;8179;59.364;18.018;2023-08-01T08:01:02;1012.78;;;951.70;;
16147;SDS011;8179;59.364;18.018;2023-08-01T08:03:28;1019.70;;;957.75;;
16147;SDS011;8179;59.364;18.018;2023-08-01T08:05:55;1003.60;;;944.00;;
16147;SDS011;8179;59.364;18.018;2023-08-01T08:08:21;1042.07;;;976.72;;
16147;SDS011;8179;59.364;18.018;2023-08-01T08:10:48;1001.92;;;940.80;;
16147;SDS011;8179;59.364;18.018;2023-08-01T08:13:16;995.47;;;935.47;;
16147;SDS011;8179;59.364;18.018;2023-08-01T08:15:42;1001.22;;;941.92;;
16147;SDS011;8179;59.364;18.018;2023-08-01T08:18:08;987.15;;;927.70;;
16147;SDS011;8179;59.364;18.018;2023-08-01T08:20:40;991.13;;;932.22;;
16147;SDS011;8179;59.364;18.018;2023-08-01T08:23:07;987.97;;;929.63;;
16147;SDS011;8179;59.364;18.018;2023-08-01T08:25:33;987.88;;;929.08;;
16147;SDS011;8179;59.364;18.018;2023-08-01T08:28:00;848.40;;;802.00;;
16147;SDS011;8179;59.364;18.018;2023-08-01T08:30:28;1041.15;;;975.78;;
16147;SDS011;8179;59.364;18.018;2023-08-01T08:32:54;1050.38;;;985.28;;
16147;SDS011;8179;59.364;18.018;2023-08-01T08:35:21;976.80;;;920.72;;
16147;SDS011;8179;59.364;18.018;2023-08-01T08:37:47;963.72;;;907.83;;
16147;SDS011;8179;59.364;18.018;2023-08-01T08:40:14;1042.15;;;977.90;;
16147;SDS011;8179;59.364;18.018;2023-08-01T08:42:40;978.42;;;922.05;;
16147;SDS011;8179;59.364;18.018;2023-08-01T08:45:07;969.17;;;912.63;;
16147;SDS011;8179;59.364;18.018;2023-08-01T08:47:36;998.15;;;938.22;;
16147;SDS011;8179;59.364;18.018;2023-08-01T08:50:03;965.90;;;908.95;;
16147;SDS011;8179;59.364;18.018;2023-08-01T08:52:31;895.80;;;845.88;;
16147;SDS011;8179;59.364;18.018;2023-08-01T08:54:57;980.30;;;923.70;;
16147;SDS011;8179;59.364;18.018;2023-08-01T08:57:24;891.28;;;843.22;;
16147;SDS011;8179;59.364;18.018;2023-08-01T08:59:51;978.50;;;920.83;;
16147;SDS011;8179;59.364;18.018;2023-08-01T09:02:18;969.83;;;913.65;;
16147;SDS011;8179;59.364;18.018;2023-08-01T09:04:47;937.65;;;885.25;;
16147;SDS011;8179;59.364;18.018;2023-08-01T09:07:14;851.05;;;805.97;;
16147;SDS011;8179;59.364;18.018;2023-08-01T09:09:41;706.85;;;669.75;;
16147;SDS011;8179;59.364;18.018;2023-08-01T09:12:08;847.13;;;802.10;;
16147;SDS011;8179;59.364;18.018;2023-08-01T09:14:35;847.85;;;802.88;;
16147;SDS011;8179;59.364;18.018;2023-08-01T09:17:05;889.05;;;838.38;;
16147;SDS011;8179;59.364;18.018;2023-08-01T09:19:32;830.28;;;787.60;;
16147;SDS011;8179;59.364;18.018;2023-08-01T09:22:00;889.10;;;840.95;;
16147;SDS011;8179;59.364;18.018;2023-08-01T09:24:26;851.83;;;806.72;;
16147;SDS011;8179;59.364;18.018;2023-08-01T09:26:53;964.05;;;908.50;;
16147;SDS011;8179;59.364;18.018;2023-08-01T09:29:28;874.35;;;826.90;;
16147;SDS011;8179;59.364;18.018;2023-08-01T09:31:56;880.17;;;832.35;;
16147;SDS011;8179;59.364;18.018;2023-08-01T09:34:24;901.22;;;849.90;;
16147;SDS011;8179;59.364;18.018;2023-08-01T09:36:50;821.53;;;779.10;;
16147;SDS011;8179;59.364;18.018;2023-08-01T09:39:19;842.67;;;797.58;;
16147;SDS011;8179;59.364;18.018;2023-08-01T09:41:46;857.85;;;811.78;;
16147;SDS011;8179;59.364;18.018;2023-08-01T09:44:14;957.75;;;902.95;;
16147;SDS011;8179;59.364;18.018;2023-08-01T09:46:41;902.55;;;853.58;;
16147;SDS011;8179;59.364;18.018;2023-08-01T09:49:09;922.53;;;872.03;;
16147;SDS011;8179;59.364;18.018;2023-08-01T09:51:45;900.60;;;851.58;;
16147;SDS011;8179;59.364;18.018;2023-08-01T09:54:12;890.70;;;841.80;;
16147;SDS011;8179;59.364;18.018;2023-08-01T09:56:40;864.30;;;817.63;;
16147;SDS011;8179;59.364;18.018;2023-08-01T09:59:10;873.92;;;826.17;;
16147;SDS011;8179;59.364;18.018;2023-08-01T10:01:37;886.30;;;837.58;;
16147;SDS011;8179;59.364;18.018;2023-08-01T10:04:04;952.20;;;898.53;;
16147;SDS011;8179;59.364;18.018;2023-08-01T10:06:32;960.75;;;904.15;;
16147;SDS011;8179;59.364;18.018;2023-08-01T10:08:59;967.00;;;909.08;;
16147;SDS011;8179;59.364;18.018;2023-08-01T10:11:25;786.63;;;746.95;;
16147;SDS011;8179;59.364;18.018;2023-08-01T10:13:54;942.88;;;889.15;;
16147;SDS011;8179;59.364;18.018;2023-08-01T10:16:20;911.83;;;860.88;;
16147;SDS011;8179;59.364;18.018;2023-08-01T10:18:47;901.20;;;849.55;;
16147;SDS011;8179;59.364;18.018;2023-08-01T10:21:15;860.28;;;814.10;;
16147;SDS011;8179;59.364;18.018;2023-08-01T10:23:42;940.15;;;885.05;;
16147;SDS011;8179;59.364;18.018;2023-08-01T10:26:10;938.63;;;883.38;;
16147;SDS011;8179;59.364;18.018;2023-08-01T10:28:38;797.65;;;755.17;;
16147;SDS011;8179;59.364;18.018;2023-08-01T10:31:10;853.95;;;808.40;;
16147;SDS011;8179;59.364;18.018;2023-08-01T10:33:37;876.60;;;828.20;;
16147;SDS011;8179;59.364;18.018;2023-08-01T10:36:12;963.90;;;907.65;;
16147;SDS011;8179;59.364;18.018;2023-08-01T10:38:44;1015.80;;;954.42;;
16147;SDS011;8179;59.364;18.018;2023-08-01T10:41:17;1031.15;;;967.30;;
16147;SDS011;8179;59.364;18.018;2023-08-01T10:43:44;1079.55;;;998.70;;
16147;SDS011;8179;59.364;18.018;2023-08-01T10:46:12;1064.18;;;993.55;;
16147;SDS011;8179;59.364;18.018;2023-08-01T10:48:47;991.53;;;932.30;;
16147;SDS011;8179;59.364;18.018;2023-08-01T10:51:15;1023.88;;;960.22;;
16147;SDS011;8179;59.364;18.018;2023-08-01T10:53:41;983.28;;;925.35;;
16147;SDS011;8179;59.364;18.018;2023-08-01T10:56:08;989.25;;;929.85;;
16147;SDS011;8179;59.364;18.018;2023-08-01T10:58:34;970.17;;;914.22;;
16147;SDS011;8179;59.364;18.018;2023-08-01T11:01:01;950.50;;;895.63;;
16147;SDS011;8179;59.364;18.018;2023-08-01T11:03:35;924.00;;;871.00;;
16147;SDS011;8179;59.364;18.018;2023-08-01T11:06:02;1047.97;;;982.67;;
16147;SDS011;8179;59.364;18.018;2023-08-01T11:08:34;995.15;;;935.05;;
16147;SDS011;8179;59.364;18.018;2023-08-01T11:11:00;982.08;;;924.45;;
16147;SDS011;8179;59.364;18.018;2023-08-01T11:13:27;1078.70;;;996.60;;
16147;SDS011;8179;59.364;18.018;2023-08-01T11:15:53;1036.95;;;972.20;;
16147;SDS011;8179;59.364;18.018;2023-08-01T11:18:21;1002.53;;;942.95;;
16147;SDS011;8179;59.364;18.018;2023-08-01T11:20:49;962.10;;;903.75;;
16147;SDS011;8179;59.364;18.018;2023-08-01T11:23:16;973.75;;;916.00;;
16147;SDS011;8179;59.364;18.018;2023-08-01T11:25:43;995.92;;;935.85;;
16147;SDS011;8179;59.364;18.018;2023-08-01T11:28:11;1076.88;;;997.60;;
16147;SDS011;8179;59.364;18.018;2023-08-01T11:30:38;940.03;;;885.47;;
16147;SDS011;8179;59.364;18.018;2023-08-01T11:33:13;947.72;;;890.28;;
16147;SDS011;8179;59.364;18.018;2023-08-01T11:35:39;586.40;;;560.42;;
16147;SDS011;8179;59.364;18.018;2023-08-01T11:38:07;817.10;;;773.42;;
16147;SDS011;8179;59.364;18.018;2023-08-01T11:40:34;950.47;;;895.17;;
16147;SDS011;8179;59.364;18.018;2023-08-01T11:43:00;770.75;;;731.15;;
16147;SDS011;8179;59.364;18.018;2023-08-01T11:45:27;977.35;;;912.85;;
16147;SDS011;8179;59.364;18.018;2023-08-01T11:47:53;919.88;;;866.05;;
16147;SDS011;8179;59.364;18.018;2023-08-01T11:50:20;708.58;;;673.92;;
16147;SDS011;8179;59.364;18.018;2023-08-01T11:52:47;890.10;;;839.53;;
16147;SDS011;8179;59.364;18.018;2023-08-01T11:55:19;1072.70;;;997.20;;
16147;SDS011;8179;59.364;18.018;2023-08-01T11:57:51;697.45;;;662.22;;
16147;SDS011;8179;59.364;18.018;2023-08-01T12:00:20;927.78;;;872.95;;
16147;SDS011;8179;59.364;18.018;2023-08-01T12:02:47;811.08;;;766.65;;
16147;SDS011;8179;59.364;18.018;2023-08-01T12:05:20;904.00;;;852.15;;
16147;SDS011;8179;59.364;18.018;2023-08-01T12:07:46;876.42;;;827.60;;
16147;SDS011;8179;59.364;18.018;2023-08-01T12:10:13;835.17;;;788.05;;
16147;SDS011;8179;59.364;18.018;2023-08-01T12:12:44;806.75;;;762.50;;
16147;SDS011;8179;59.364;18.018;2023-08-01T12:15:11;961.03;;;904.35;;
16147;SDS011;8179;59.364;18.018;2023-08-01T12:17:37;1095.25;;;999.90;;
16147;SDS011;8179;59.364;18.018;2023-08-01T12:20:04;1022.22;;;959.58;;
16147;SDS011;8179;59.364;18.018;2023-08-01T12:22:32;997.30;;;937.63;;
16147;SDS011;8179;59.364;18.018;2023-08-01T12:24:58;923.00;;;870.65;;
16147;SDS011;8179;59.364;18.018;2023-08-01T12:27:25;925.00;;;871.13;;
16147;SDS011;8179;59.364;18.018;2023-08-01T12:29:52;967.60;;;910.25;;
16147;SDS011;8179;59.364;18.018;2023-08-01T12:32:19;824.92;;;781.33;;
16147;SDS011;8179;59.364;18.018;2023-08-01T12:34:45;992.20;;;933.35;;
16147;SDS011;8179;59.364;18.018;2023-08-01T12:37:12;1018.47;;;954.88;;
16147;SDS011;8179;59.364;18.018;2023-08-01T12:39:38;982.85;;;923.85;;
16147;SDS011;8179;59.364;18.018;2023-08-01T12:42:05;962.05;;;902.92;;
16147;SDS011;8179;59.364;18.018;2023-08-01T12:44:32;950.97;;;895.92;;
16147;SDS011;8179;59.364;18.018;2023-08-01T12:47:00;978.17;;;919.50;;
16147;SDS011;8179;59.364;18.018;2023-08-01T12:49:26;943.13;;;889.60;;
16147;SDS011;8179;59.364;18.018;2023-08-01T12:51:53;893.00;;;841.80;;
16147;SDS011;8179;59.364;18.018;2023-08-01T12:54:19;832.15;;;788.28;;
16147;SDS011;8179;59.364;18.018;2023-08-01T12:56:46;905.33;;;853.63;;
16147;SDS011;8179;59.364;18.018;2023-08-01T12:59:12;897.10;;;847.50;;
16147;SDS011;8179;59.364;18.018;2023-08-01T13:01:39;886.90;;;838.63;;
16147;SDS011;8179;59.364;18.018;2023-08-01T13:04:07;890.38;;;840.75;;
16147;SDS011;8179;59.364;18.018;2023-08-01T13:06:33;862.47;;;814.35;;
16147;SDS011;8179;59.364;18.018;2023-08-01T13:09:00;952.13;;;897.55;;
16147;SDS011;8179;59.364;18.018;2023-08-01T13:11:26;853.28;;;807.17;;
16147;SDS011;8179;59.364;18.018;2023-08-01T13:13:53;766.35;;;724.20;;
16147;SDS011;8179;59.364;18.018;2023-08-01T13:16:20;963.45;;;905.85;;
16147;SDS011;8179;59.364;18.018;2023-08-01T13:18:46;913.67;;;862.75;;
16147;SDS011;8179;59.364;18.018;2023-08-01T13:21:14;898.17;;;848.10;;
16147;SDS011;8179;59.364;18.018;2023-08-01T13:23:41;966.90;;;909.88;;
16147;SDS011;8179;59.364;18.018;2023-08-01T13:26:09;984.83;;;925.78;;
16147;SDS011;8179;59.364;18.018;2023-08-01T13:28:35;916.55;;;864.97;;
16147;SDS011;8179;59.364;18.018;2023-08-01T13:31:02;971.33;;;913.95;;
16147;SDS011;8179;59.364;18.018;2023-08-01T13:33:28;907.70;;;857.72;;
16147;SDS011;8179;59.364;18.018;2023-08-01T13:35:55;945.42;;;892.28;;
16147;SDS011;8179;59.364;18.018;2023-08-01T13:38:24;1003.95;;;942.70;;
16147;SDS011;8179;59.364;18.018;2023-08-01T13:40:50;1001.30;;;939.95;;
16147;SDS011;8179;59.364;18.018;2023-08-01T13:43:17;1019.63;;;954.50;;
16147;SDS011;8179;59.364;18.018;2023-08-01T13:45:43;1020.63;;;955.78;;
16147;SDS011;8179;59.364;18.018;2023-08-01T13:48:10;1018.45;;;957.40;;
16147;SDS011;8179;59.364;18.018;2023-08-01T13:50:36;1075.65;;;999.90;;
16147;SDS011;8179;59.364;18.018;2023-08-01T13:53:03;996.05;;;937.70;;
16147;SDS011;8179;59.364;18.018;2023-08-01T13:55:33;1037.13;;;970.00;;